sensor_id;sensor_type;location;lat;lon;timestamp;P1;durP1;ratioP1;P2;durP2;ratioP2
76157;SDS011;64907;51.574;6.502;2023-04-03T00:00:21;10.25;;;7.28;;
76157;SDS011;64907;51.574;6.502;2023-04-03T00:02:46;8.43;;;7.20;;
76157;SDS011;64907;51.574;6.502;2023-04-03T00:05:11;9.95;;;7.70;;
76157;SDS011;64907;51.574;6.502;2023-04-03T00:07:37;8.45;;;7.53;;
76157;SDS011;64907;51.574;6.502;2023-04-03T00:10:02;8.20;;;7.20;;
76157;SDS011;64907;51.574;6.502;2023-04-03T00:12:29;6.90;;;6.30;;
76157;SDS011;64907;51.574;6.502;2023-04-03T00:14:54;9.63;;;6.75;;
76157;SDS011;64907;51.574;6.502;2023-04-03T00:17:20;7.73;;;6.83;;
76157;SDS011;64907;51.574;6.502;2023-04-03T00:19:45;14.20;;;7.25;;
76157;SDS011;64907;51.574;6.502;2023-04-03T00:22:13;7.88;;;7.13;;
76157;SDS011;64907;51.574;6.502;2023-04-03T00:24:38;9.98;;;7.80;;
76157;SDS011;64907;51.574;6.502;2023-04-03T00:27:03;9.60;;;8.32;;
76157;SDS011;64907;51.574;6.502;2023-04-03T00:29:28;9.13;;;8.00;;
76157;SDS011;64907;51.574;6.502;2023-04-03T00:31:54;9.52;;;7.97;;
76157;SDS011;64907;51.574;6.502;2023-04-03T00:34:20;9.87;;;7.77;;
76157;SDS011;64907;51.574;6.502;2023-04-03T00:36:45;12.70;;;7.55;;
76157;SDS011;64907;51.574;6.502;2023-04-03T00:39:10;9.57;;;7.57;;
76157;SDS011;64907;51.574;6.502;2023-04-03T00:41:35;8.77;;;7.60;;
76157;SDS011;64907;51.574;6.502;2023-04-03T00:44:01;8.93;;;7.30;;
76157;SDS011;64907;51.574;6.502;2023-04-03T00:46:26;12.82;;;7.40;;
76157;SDS011;64907;51.574;6.502;2023-04-03T00:48:51;9.45;;;8.07;;
76157;SDS011;64907;51.574;6.502;2023-04-03T00:51:17;12.13;;;8.13;;
76157;SDS011;64907;51.574;6.502;2023-04-03T00:53:46;8.55;;;7.18;;
76157;SDS011;64907;51.574;6.502;2023-04-03T00:56:13;9.48;;;8.15;;
76157;SDS011;64907;51.574;6.502;2023-04-03T00:58:54;8.88;;;7.68;;
76157;SDS011;64907;51.574;6.502;2023-04-03T01:01:22;11.23;;;7.40;;
76157;SDS011;64907;51.574;6.502;2023-04-03T01:03:50;9.60;;;6.95;;
76157;SDS011;64907;51.574;6.502;2023-04-03T01:06:16;11.88;;;6.93;;
76157;SDS011;64907;51.574;6.502;2023-04-03T01:08:41;10.38;;;6.93;;
76157;SDS011;64907;51.574;6.502;2023-04-03T01:11:07;10.25;;;6.70;;
76157;SDS011;64907;51.574;6.502;2023-04-03T01:13:32;8.10;;;6.43;;
76157;SDS011;64907;51.574;6.502;2023-04-03T01:16:02;9.93;;;7.07;;
76157;SDS011;64907;51.574;6.502;2023-04-03T01:18:28;6.35;;;5.75;;
76157;SDS011;64907;51.574;6.502;2023-04-03T01:23:40;6.18;;;5.57;;
76157;SDS011;64907;51.574;6.502;2023-04-03T01:26:08;7.07;;;5.97;;
76157;SDS011;64907;51.574;6.502;2023-04-03T01:28:36;8.05;;;5.22;;
76157;SDS011;64907;51.574;6.502;2023-04-03T01:33:34;5.57;;;4.80;;
76157;SDS011;64907;51.574;6.502;2023-04-03T01:36:00;6.13;;;3.78;;
76157;SDS011;64907;51.574;6.502;2023-04-03T01:38:25;6.93;;;3.72;;
76157;SDS011;64907;51.574;6.502;2023-04-03T01:40:50;3.65;;;3.30;;
76157;SDS011;64907;51.574;6.502;2023-04-03T01:43:16;4.68;;;3.80;;
76157;SDS011;64907;51.574;6.502;2023-04-03T01:45:41;3.70;;;3.40;;
76157;SDS011;64907;51.574;6.502;2023-04-03T01:48:06;5.30;;;3.60;;
76157;SDS011;64907;51.574;6.502;2023-04-03T01:50:31;8.27;;;3.72;;
76157;SDS011;64907;51.574;6.502;2023-04-03T01:52:57;6.63;;;3.60;;
76157;SDS011;64907;51.574;6.502;2023-04-03T01:55:22;3.80;;;3.30;;
76157;SDS011;64907;51.574;6.502;2023-04-03T01:57:47;6.78;;;3.55;;
76157;SDS011;64907;51.574;6.502;2023-04-03T02:00:12;4.30;;;3.75;;
76157;SDS011;64907;51.574;6.502;2023-04-03T02:02:38;6.82;;;3.80;;
76157;SDS011;64907;51.574;6.502;2023-04-03T02:05:04;5.22;;;3.55;;
76157;SDS011;64907;51.574;6.502;2023-04-03T02:07:29;3.13;;;2.72;;
76157;SDS011;64907;51.574;6.502;2023-04-03T02:09:54;5.85;;;3.67;;
76157;SDS011;64907;51.574;6.502;2023-04-03T02:12:20;3.20;;;2.88;;
76157;SDS011;64907;51.574;6.502;2023-04-03T02:14:45;6.07;;;3.38;;
76157;SDS011;64907;51.574;6.502;2023-04-03T02:17:10;7.72;;;4.28;;
76157;SDS011;64907;51.574;6.502;2023-04-03T02:19:36;5.93;;;4.18;;
76157;SDS011;64907;51.574;6.502;2023-04-03T02:22:02;5.43;;;3.38;;
76157;SDS011;64907;51.574;6.502;2023-04-03T02:24:27;4.13;;;3.72;;
76157;SDS011;64907;51.574;6.502;2023-04-03T02:26:53;5.03;;;2.90;;
76157;SDS011;64907;51.574;6.502;2023-04-03T02:29:18;4.32;;;2.97;;
76157;SDS011;64907;51.574;6.502;2023-04-03T02:31:43;8.30;;;3.30;;
76157;SDS011;64907;51.574;6.502;2023-04-03T02:34:08;6.53;;;2.70;;
76157;SDS011;64907;51.574;6.502;2023-04-03T02:36:33;4.47;;;3.05;;
76157;SDS011;64907;51.574;6.502;2023-04-03T02:38:59;2.97;;;2.78;;
76157;SDS011;64907;51.574;6.502;2023-04-03T02:41:24;3.65;;;2.97;;
76157;SDS011;64907;51.574;6.502;2023-04-03T02:43:52;6.25;;;2.22;;
76157;SDS011;64907;51.574;6.502;2023-04-03T02:46:17;7.53;;;3.53;;
76157;SDS011;64907;51.574;6.502;2023-04-03T02:48:43;4.35;;;2.88;;
76157;SDS011;64907;51.574;6.502;2023-04-03T02:51:08;8.70;;;3.00;;
76157;SDS011;64907;51.574;6.502;2023-04-03T02:53:33;5.30;;;2.83;;
76157;SDS011;64907;51.574;6.502;2023-04-03T02:55:58;6.13;;;2.97;;
76157;SDS011;64907;51.574;6.502;2023-04-03T02:58:23;4.55;;;3.50;;
76157;SDS011;64907;51.574;6.502;2023-04-03T03:00:48;2.78;;;2.42;;
76157;SDS011;64907;51.574;6.502;2023-04-03T03:03:14;8.45;;;2.83;;
76157;SDS011;64907;51.574;6.502;2023-04-03T03:05:40;5.20;;;2.50;;
76157;SDS011;64907;51.574;6.502;2023-04-03T03:08:05;5.43;;;3.10;;
76157;SDS011;64907;51.574;6.502;2023-04-03T03:10:30;5.43;;;3.03;;
76157;SDS011;64907;51.574;6.502;2023-04-03T03:12:55;8.10;;;3.30;;
76157;SDS011;64907;51.574;6.502;2023-04-03T03:15:21;3.58;;;3.10;;
76157;SDS011;64907;51.574;6.502;2023-04-03T03:17:46;2.80;;;2.60;;
76157;SDS011;64907;51.574;6.502;2023-04-03T03:20:12;6.00;;;3.30;;
76157;SDS011;64907;51.574;6.502;2023-04-03T03:22:40;7.45;;;3.55;;
76157;SDS011;64907;51.574;6.502;2023-04-03T03:25:05;5.68;;;3.13;;
76157;SDS011;64907;51.574;6.502;2023-04-03T03:27:30;6.70;;;3.38;;
76157;SDS011;64907;51.574;6.502;2023-04-03T03:29:56;4.55;;;3.35;;
76157;SDS011;64907;51.574;6.502;2023-04-03T03:32:21;4.88;;;3.15;;
76157;SDS011;64907;51.574;6.502;2023-04-03T03:34:46;6.03;;;3.63;;
76157;SDS011;64907;51.574;6.502;2023-04-03T03:37:11;4.93;;;3.30;;
76157;SDS011;64907;51.574;6.502;2023-04-03T03:39:36;3.30;;;3.03;;
76157;SDS011;64907;51.574;6.502;2023-04-03T03:42:02;7.55;;;2.78;;
76157;SDS011;64907;51.574;6.502;2023-04-03T03:44:27;4.65;;;2.58;;
76157;SDS011;64907;51.574;6.502;2023-04-03T03:46:54;5.70;;;2.92;;
76157;SDS011;64907;51.574;6.502;2023-04-03T03:49:19;6.90;;;3.58;;
76157;SDS011;64907;51.574;6.502;2023-04-03T03:51:44;9.18;;;3.35;;
76157;SDS011;64907;51.574;6.502;2023-04-03T03:54:10;4.50;;;2.78;;
76157;SDS011;64907;51.574;6.502;2023-04-03T03:56:35;6.53;;;2.35;;
76157;SDS011;64907;51.574;6.502;2023-04-03T03:59:00;3.35;;;2.90;;
76157;SDS011;64907;51.574;6.502;2023-04-03T04:01:26;4.10;;;2.63;;
76157;SDS011;64907;51.574;6.502;2023-04-03T04:03:51;3.83;;;2.65;;
76157;SDS011;64907;51.574;6.502;2023-04-03T04:06:16;3.75;;;2.53;;
76157;SDS011;64907;51.574;6.502;2023-04-03T04:08:41;8.13;;;3.25;;
76157;SDS011;64907;51.574;6.502;2023-04-03T04:11:07;3.08;;;2.47;;
76157;SDS011;64907;51.574;6.502;2023-04-03T04:13:32;7.38;;;2.78;;
76157;SDS011;64907;51.574;6.502;2023-04-03T04:15:57;5.57;;;3.28;;
76157;SDS011;64907;51.574;6.502;2023-04-03T04:18:22;5.43;;;2.90;;
76157;SDS011;64907;51.574;6.502;2023-04-03T04:20:48;2.97;;;2.70;;
76157;SDS011;64907;51.574;6.502;2023-04-03T04:23:14;6.68;;;2.63;;
76157;SDS011;64907;51.574;6.502;2023-04-03T04:25:39;8.15;;;2.95;;
76157;SDS011;64907;51.574;6.502;2023-04-03T04:28:04;6.72;;;2.88;;
76157;SDS011;64907;51.574;6.502;2023-04-03T04:30:29;6.47;;;3.13;;
76157;SDS011;64907;51.574;6.502;2023-04-03T04:32:55;6.63;;;3.30;;
76157;SDS011;64907;51.574;6.502;2023-04-03T04:35:20;7.13;;;2.97;;
76157;SDS011;64907;51.574;6.502;2023-04-03T04:37:45;5.87;;;2.63;;
76157;SDS011;64907;51.574;6.502;2023-04-03T04:40:10;4.20;;;2.78;;
76157;SDS011;64907;51.574;6.502;2023-04-03T04:42:36;5.85;;;2.83;;
76157;SDS011;64907;51.574;6.502;2023-04-03T04:45:01;4.95;;;2.45;;
76157;SDS011;64907;51.574;6.502;2023-04-03T04:47:27;6.47;;;3.33;;
76157;SDS011;64907;51.574;6.502;2023-04-03T04:49:52;2.45;;;2.25;;
76157;SDS011;64907;51.574;6.502;2023-04-03T04:52:18;4.30;;;2.15;;
76157;SDS011;64907;51.574;6.502;2023-04-03T04:54:43;3.40;;;2.45;;
76157;SDS011;64907;51.574;6.502;2023-04-03T04:57:08;4.22;;;2.30;;
76157;SDS011;64907;51.574;6.502;2023-04-03T04:59:33;6.30;;;2.67;;
76157;SDS011;64907;51.574;6.502;2023-04-03T05:01:58;7.68;;;3.03;;
76157;SDS011;64907;51.574;6.502;2023-04-03T05:04:24;4.95;;;2.60;;
76157;SDS011;64907;51.574;6.502;2023-04-03T05:06:49;7.25;;;2.90;;
76157;SDS011;64907;51.574;6.502;2023-04-03T05:09:14;3.05;;;2.50;;
76157;SDS011;64907;51.574;6.502;2023-04-03T05:11:40;9.05;;;3.45;;
76157;SDS011;64907;51.574;6.502;2023-04-03T05:14:05;4.53;;;2.83;;
76157;SDS011;64907;51.574;6.502;2023-04-03T05:16:31;5.47;;;2.80;;
76157;SDS011;64907;51.574;6.502;2023-04-03T05:18:57;10.02;;;3.30;;
76157;SDS011;64907;51.574;6.502;2023-04-03T05:21:22;3.90;;;2.35;;
76157;SDS011;64907;51.574;6.502;2023-04-03T05:23:48;6.45;;;2.80;;
76157;SDS011;64907;51.574;6.502;2023-04-03T05:26:13;7.85;;;3.33;;
76157;SDS011;64907;51.574;6.502;2023-04-03T05:28:38;6.57;;;2.28;;
76157;SDS011;64907;51.574;6.502;2023-04-03T05:31:04;8.60;;;3.00;;
76157;SDS011;64907;51.574;6.502;2023-04-03T05:33:29;4.53;;;2.47;;
76157;SDS011;64907;51.574;6.502;2023-04-03T05:35:54;6.63;;;2.63;;
76157;SDS011;64907;51.574;6.502;2023-04-03T05:38:19;7.10;;;2.65;;
76157;SDS011;64907;51.574;6.502;2023-04-03T05:40:45;4.97;;;2.75;;
76157;SDS011;64907;51.574;6.502;2023-04-03T05:43:10;5.28;;;2.55;;
76157;SDS011;64907;51.574;6.502;2023-04-03T05:45:35;4.90;;;2.47;;
76157;SDS011;64907;51.574;6.502;2023-04-03T05:48:01;3.28;;;2.30;;
76157;SDS011;64907;51.574;6.502;2023-04-03T05:50:26;5.18;;;2.75;;
76157;SDS011;64907;51.574;6.502;2023-04-03T05:52:52;4.13;;;3.05;;
76157;SDS011;64907;51.574;6.502;2023-04-03T05:55:17;7.35;;;2.97;;
76157;SDS011;64907;51.574;6.502;2023-04-03T05:57:42;11.73;;;3.13;;
76157;SDS011;64907;51.574;6.502;2023-04-03T06:00:08;4.00;;;2.72;;
76157;SDS011;64907;51.574;6.502;2023-04-03T06:02:34;3.83;;;2.92;;
76157;SDS011;64907;51.574;6.502;2023-04-03T06:05:00;9.15;;;3.47;;
76157;SDS011;64907;51.574;6.502;2023-04-03T06:07:26;4.65;;;2.55;;
76157;SDS011;64907;51.574;6.502;2023-04-03T06:09:53;6.32;;;3.17;;
76157;SDS011;64907;51.574;6.502;2023-04-03T06:12:18;10.95;;;3.13;;
76157;SDS011;64907;51.574;6.502;2023-04-03T06:14:44;4.03;;;2.63;;
76157;SDS011;64907;51.574;6.502;2023-04-03T06:17:09;3.55;;;2.67;;
76157;SDS011;64907;51.574;6.502;2023-04-03T06:19:35;9.27;;;2.90;;
76157;SDS011;64907;51.574;6.502;2023-04-03T06:22:01;3.78;;;2.80;;
76157;SDS011;64907;51.574;6.502;2023-04-03T06:24:26;10.05;;;3.50;;
76157;SDS011;64907;51.574;6.502;2023-04-03T06:26:52;8.77;;;2.80;;
76157;SDS011;64907;51.574;6.502;2023-04-03T06:29:19;5.05;;;2.58;;
76157;SDS011;64907;51.574;6.502;2023-04-03T06:31:44;6.03;;;3.00;;
76157;SDS011;64907;51.574;6.502;2023-04-03T06:34:10;8.05;;;2.72;;
76157;SDS011;64907;51.574;6.502;2023-04-03T06:36:36;6.20;;;2.90;;
76157;SDS011;64907;51.574;6.502;2023-04-03T06:39:02;8.65;;;2.85;;
76157;SDS011;64907;51.574;6.502;2023-04-03T06:41:28;7.15;;;2.60;;
76157;SDS011;64907;51.574;6.502;2023-04-03T06:43:53;6.88;;;2.83;;
76157;SDS011;64907;51.574;6.502;2023-04-03T06:46:19;5.13;;;2.40;;
76157;SDS011;64907;51.574;6.502;2023-04-03T06:48:45;7.43;;;2.33;;
76157;SDS011;64907;51.574;6.502;2023-04-03T06:51:20;5.50;;;2.83;;
76157;SDS011;64907;51.574;6.502;2023-04-03T06:53:46;5.65;;;2.40;;
76157;SDS011;64907;51.574;6.502;2023-04-03T06:56:12;10.20;;;2.92;;
76157;SDS011;64907;51.574;6.502;2023-04-03T06:58:37;6.70;;;2.47;;
76157;SDS011;64907;51.574;6.502;2023-04-03T07:01:02;5.65;;;2.60;;
76157;SDS011;64907;51.574;6.502;2023-04-03T07:03:27;3.85;;;2.47;;
76157;SDS011;64907;51.574;6.502;2023-04-03T07:05:53;4.93;;;1.90;;
76157;SDS011;64907;51.574;6.502;2023-04-03T07:08:18;6.85;;;2.42;;
76157;SDS011;64907;51.574;6.502;2023-04-03T07:10:43;7.13;;;3.13;;
76157;SDS011;64907;51.574;6.502;2023-04-03T07:13:08;4.80;;;2.40;;
76157;SDS011;64907;51.574;6.502;2023-04-03T07:15:33;7.75;;;2.70;;
76157;SDS011;64907;51.574;6.502;2023-04-03T07:17:59;4.45;;;2.80;;
76157;SDS011;64907;51.574;6.502;2023-04-03T07:20:24;4.35;;;2.83;;
76157;SDS011;64907;51.574;6.502;2023-04-03T07:22:50;2.70;;;2.42;;
76157;SDS011;64907;51.574;6.502;2023-04-03T07:25:15;5.82;;;2.95;;
76157;SDS011;64907;51.574;6.502;2023-04-03T07:27:41;4.68;;;2.33;;
76157;SDS011;64907;51.574;6.502;2023-04-03T07:30:06;7.10;;;2.78;;
76157;SDS011;64907;51.574;6.502;2023-04-03T07:32:32;5.93;;;2.60;;
76157;SDS011;64907;51.574;6.502;2023-04-03T07:34:57;5.97;;;2.22;;
76157;SDS011;64907;51.574;6.502;2023-04-03T07:37:22;8.15;;;2.78;;
76157;SDS011;64907;51.574;6.502;2023-04-03T07:39:47;8.60;;;2.47;;
76157;SDS011;64907;51.574;6.502;2023-04-03T07:42:13;8.77;;;2.67;;
76157;SDS011;64907;51.574;6.502;2023-04-03T07:44:38;4.82;;;2.33;;
76157;SDS011;64907;51.574;6.502;2023-04-03T07:47:03;3.85;;;2.60;;
76157;SDS011;64907;51.574;6.502;2023-04-03T07:49:29;6.32;;;2.20;;
76157;SDS011;64907;51.574;6.502;2023-04-03T07:51:54;5.80;;;2.75;;
76157;SDS011;64907;51.574;6.502;2023-04-03T07:54:19;8.13;;;2.47;;
76157;SDS011;64907;51.574;6.502;2023-04-03T07:56:44;7.80;;;2.60;;
76157;SDS011;64907;51.574;6.502;2023-04-03T07:59:10;3.97;;;2.20;;
76157;SDS011;64907;51.574;6.502;2023-04-03T08:01:36;3.95;;;2.35;;
76157;SDS011;64907;51.574;6.502;2023-04-03T08:04:01;6.93;;;2.33;;
76157;SDS011;64907;51.574;6.502;2023-04-03T08:06:26;6.03;;;2.40;;
76157;SDS011;64907;51.574;6.502;2023-04-03T08:08:51;5.35;;;2.38;;
76157;SDS011;64907;51.574;6.502;2023-04-03T08:11:17;7.05;;;2.30;;
76157;SDS011;64907;51.574;6.502;2023-04-03T08:13:43;2.80;;;2.10;;
76157;SDS011;64907;51.574;6.502;2023-04-03T08:16:09;7.43;;;2.33;;
76157;SDS011;64907;51.574;6.502;2023-04-03T08:18:34;2.95;;;1.90;;
76157;SDS011;64907;51.574;6.502;2023-04-03T08:21:00;3.38;;;2.13;;
76157;SDS011;64907;51.574;6.502;2023-04-03T08:23:25;3.33;;;2.42;;
76157;SDS011;64907;51.574;6.502;2023-04-03T08:25:51;2.58;;;1.88;;
76157;SDS011;64907;51.574;6.502;2023-04-03T08:28:16;5.93;;;2.33;;
76157;SDS011;64907;51.574;6.502;2023-04-03T08:30:41;3.35;;;2.28;;
76157;SDS011;64907;51.574;6.502;2023-04-03T08:33:08;3.00;;;1.98;;
76157;SDS011;64907;51.574;6.502;2023-04-03T08:35:37;5.05;;;2.30;;
76157;SDS011;64907;51.574;6.502;2023-04-03T08:38:03;7.35;;;1.90;;
76157;SDS011;64907;51.574;6.502;2023-04-03T08:40:28;5.65;;;1.67;;
76157;SDS011;64907;51.574;6.502;2023-04-03T08:43:00;2.65;;;1.85;;
76157;SDS011;64907;51.574;6.502;2023-04-03T08:50:45;4.28;;;1.85;;
76157;SDS011;64907;51.574;6.502;2023-04-03T08:53:14;5.00;;;1.63;;
76157;SDS011;64907;51.574;6.502;2023-04-03T08:55:42;1.80;;;1.40;;
76157;SDS011;64907;51.574;6.502;2023-04-03T08:58:12;4.22;;;2.08;;
76157;SDS011;64907;51.574;6.502;2023-04-03T09:00:44;3.78;;;1.50;;
76157;SDS011;64907;51.574;6.502;2023-04-03T09:03:15;3.58;;;1.63;;
76157;SDS011;64907;51.574;6.502;2023-04-03T09:08:31;2.75;;;1.48;;
76157;SDS011;64907;51.574;6.502;2023-04-03T09:11:18;3.72;;;1.40;;
76157;SDS011;64907;51.574;6.502;2023-04-03T09:13:54;1.98;;;1.20;;
76157;SDS011;64907;51.574;6.502;2023-04-03T09:18:53;2.65;;;1.48;;
76157;SDS011;64907;51.574;6.502;2023-04-03T09:21:31;3.42;;;1.50;;
76157;SDS011;64907;51.574;6.502;2023-04-03T09:24:00;1.42;;;1.33;;
76157;SDS011;64907;51.574;6.502;2023-04-03T09:26:28;1.33;;;1.20;;
76157;SDS011;64907;51.574;6.502;2023-04-03T09:28:55;1.15;;;1.10;;
76157;SDS011;64907;51.574;6.502;2023-04-03T09:31:23;2.97;;;1.38;;
76157;SDS011;64907;51.574;6.502;2023-04-03T09:33:49;2.00;;;1.23;;
76157;SDS011;64907;51.574;6.502;2023-04-03T09:36:36;2.53;;;1.27;;
76157;SDS011;64907;51.574;6.502;2023-04-03T09:39:05;1.95;;;1.40;;
76157;SDS011;64907;51.574;6.502;2023-04-03T09:41:30;1.42;;;1.33;;
76157;SDS011;64907;51.574;6.502;2023-04-03T09:43:57;2.33;;;1.30;;
76157;SDS011;64907;51.574;6.502;2023-04-03T09:46:30;1.23;;;1.00;;
76157;SDS011;64907;51.574;6.502;2023-04-03T09:49:00;3.80;;;1.33;;
76157;SDS011;64907;51.574;6.502;2023-04-03T09:51:28;1.65;;;1.40;;
76157;SDS011;64907;51.574;6.502;2023-04-03T09:53:54;1.85;;;1.23;;
76157;SDS011;64907;51.574;6.502;2023-04-03T09:56:22;2.63;;;1.50;;
76157;SDS011;64907;51.574;6.502;2023-04-03T09:58:49;1.23;;;1.10;;
76157;SDS011;64907;51.574;6.502;2023-04-03T10:01:23;3.42;;;1.30;;
76157;SDS011;64907;51.574;6.502;2023-04-03T10:04:02;1.15;;;1.08;;
76157;SDS011;64907;51.574;6.502;2023-04-03T10:06:29;1.00;;;1.00;;
76157;SDS011;64907;51.574;6.502;2023-04-03T10:09:00;2.28;;;1.23;;
76157;SDS011;64907;51.574;6.502;2023-04-03T10:11:27;1.20;;;1.20;;
76157;SDS011;64907;51.574;6.502;2023-04-03T10:13:59;1.53;;;1.10;;
76157;SDS011;64907;51.574;6.502;2023-04-03T10:16:29;3.58;;;1.45;;
76157;SDS011;64907;51.574;6.502;2023-04-03T10:19:01;0.88;;;0.88;;
76157;SDS011;64907;51.574;6.502;2023-04-03T10:24:14;1.27;;;0.90;;
76157;SDS011;64907;51.574;6.502;2023-04-03T10:29:34;1.90;;;1.05;;
76157;SDS011;64907;51.574;6.502;2023-04-03T10:34:42;4.20;;;1.90;;
76157;SDS011;64907;51.574;6.502;2023-04-03T10:37:21;1.40;;;1.30;;
76157;SDS011;64907;51.574;6.502;2023-04-03T10:39:54;2.60;;;1.33;;
76157;SDS011;64907;51.574;6.502;2023-04-03T10:42:35;1.40;;;1.20;;
76157;SDS011;64907;51.574;6.502;2023-04-03T10:57:54;1.35;;;1.25;;
76157;SDS011;64907;51.574;6.502;2023-04-03T11:00:22;2.08;;;1.52;;
76157;SDS011;64907;51.574;6.502;2023-04-03T11:02:51;1.50;;;1.13;;
76157;SDS011;64907;51.574;6.502;2023-04-03T11:05:21;1.95;;;1.30;;
76157;SDS011;64907;51.574;6.502;2023-04-03T11:07:50;4.20;;;1.50;;
76157;SDS011;64907;51.574;6.502;2023-04-03T11:12:59;1.17;;;1.08;;
76157;SDS011;64907;51.574;6.502;2023-04-03T11:15:26;3.63;;;1.42;;
76157;SDS011;64907;51.574;6.502;2023-04-03T11:18:04;1.33;;;1.30;;
76157;SDS011;64907;51.574;6.502;2023-04-03T11:20:32;4.65;;;1.38;;
76157;SDS011;64907;51.574;6.502;2023-04-03T11:23:00;1.38;;;1.27;;
76157;SDS011;64907;51.574;6.502;2023-04-03T11:25:29;1.92;;;1.17;;
76157;SDS011;64907;51.574;6.502;2023-04-03T11:35:35;1.60;;;1.50;;
76157;SDS011;64907;51.574;6.502;2023-04-03T11:38:01;1.65;;;1.40;;
76157;SDS011;64907;51.574;6.502;2023-04-03T11:40:28;2.55;;;1.55;;
76157;SDS011;64907;51.574;6.502;2023-04-03T11:43:02;1.65;;;1.55;;
76157;SDS011;64907;51.574;6.502;2023-04-03T11:45:36;1.40;;;1.30;;
76157;SDS011;64907;51.574;6.502;2023-04-03T11:48:04;5.53;;;1.52;;
76157;SDS011;64907;51.574;6.502;2023-04-03T11:50:45;1.30;;;1.20;;
76157;SDS011;64907;51.574;6.502;2023-04-03T11:56:27;3.60;;;1.40;;
76157;SDS011;64907;51.574;6.502;2023-04-03T11:58:34;1.15;;;1.15;;
76157;SDS011;64907;51.574;6.502;2023-04-03T12:01:09;1.58;;;1.30;;
76157;SDS011;64907;51.574;6.502;2023-04-03T12:11:39;3.58;;;1.25;;
76157;SDS011;64907;51.574;6.502;2023-04-03T12:26:24;4.78;;;1.50;;
76157;SDS011;64907;51.574;6.502;2023-04-03T12:28:51;3.42;;;1.35;;
76157;SDS011;64907;51.574;6.502;2023-04-03T12:31:18;2.17;;;1.63;;
76157;SDS011;64907;51.574;6.502;2023-04-03T12:33:48;1.67;;;1.38;;
76157;SDS011;64907;51.574;6.502;2023-04-03T12:39:05;2.80;;;1.42;;
76157;SDS011;64907;51.574;6.502;2023-04-03T12:41:50;1.63;;;1.20;;
76157;SDS011;64907;51.574;6.502;2023-04-03T12:46:47;2.03;;;1.55;;
76157;SDS011;64907;51.574;6.502;2023-04-03T12:54:58;3.65;;;1.30;;
76157;SDS011;64907;51.574;6.502;2023-04-03T12:57:25;3.50;;;2.13;;
76157;SDS011;64907;51.574;6.502;2023-04-03T12:59:51;3.80;;;1.55;;
76157;SDS011;64907;51.574;6.502;2023-04-03T13:02:20;1.60;;;1.50;;
76157;SDS011;64907;51.574;6.502;2023-04-03T13:04:46;1.27;;;1.27;;
76157;SDS011;64907;51.574;6.502;2023-04-03T13:07:22;2.75;;;1.70;;
76157;SDS011;64907;51.574;6.502;2023-04-03T13:12:50;6.20;;;1.90;;
76157;SDS011;64907;51.574;6.502;2023-04-03T13:15:17;1.55;;;1.45;;
76157;SDS011;64907;51.574;6.502;2023-04-03T13:17:43;2.78;;;1.50;;
76157;SDS011;64907;51.574;6.502;2023-04-03T13:20:17;2.67;;;1.40;;
76157;SDS011;64907;51.574;6.502;2023-04-03T13:22:48;2.30;;;1.60;;
76157;SDS011;64907;51.574;6.502;2023-04-03T13:25:15;2.92;;;2.10;;
76157;SDS011;64907;51.574;6.502;2023-04-03T13:27:41;1.90;;;1.30;;
76157;SDS011;64907;51.574;6.502;2023-04-03T13:30:22;1.55;;;1.42;;
76157;SDS011;64907;51.574;6.502;2023-04-03T13:32:48;1.63;;;1.52;;
76157;SDS011;64907;51.574;6.502;2023-04-03T13:35:30;2.67;;;1.60;;
76157;SDS011;64907;51.574;6.502;2023-04-03T13:37:56;3.58;;;1.40;;
76157;SDS011;64907;51.574;6.502;2023-04-03T13:40:22;3.00;;;1.73;;
76157;SDS011;64907;51.574;6.502;2023-04-03T13:42:48;2.10;;;1.90;;
76157;SDS011;64907;51.574;6.502;2023-04-03T13:47:49;2.65;;;1.40;;
76157;SDS011;64907;51.574;6.502;2023-04-03T13:50:16;3.38;;;1.08;;
76157;SDS011;64907;51.574;6.502;2023-04-03T13:55:22;1.50;;;1.40;;
76157;SDS011;64907;51.574;6.502;2023-04-03T13:57:53;1.58;;;1.48;;
76157;SDS011;64907;51.574;6.502;2023-04-03T14:00:20;2.53;;;1.73;;
76157;SDS011;64907;51.574;6.502;2023-04-03T14:02:46;1.23;;;1.23;;
76157;SDS011;64907;51.574;6.502;2023-04-03T14:05:12;1.73;;;1.30;;
76157;SDS011;64907;51.574;6.502;2023-04-03T14:07:37;3.05;;;1.50;;
76157;SDS011;64907;51.574;6.502;2023-04-03T14:10:02;3.90;;;1.48;;
76157;SDS011;64907;51.574;6.502;2023-04-03T14:12:32;2.33;;;1.42;;
76157;SDS011;64907;51.574;6.502;2023-04-03T14:14:59;2.88;;;1.90;;
76157;SDS011;64907;51.574;6.502;2023-04-03T14:17:25;3.22;;;1.60;;
76157;SDS011;64907;51.574;6.502;2023-04-03T14:19:52;3.83;;;1.48;;
76157;SDS011;64907;51.574;6.502;2023-04-03T14:22:21;3.42;;;1.27;;
76157;SDS011;64907;51.574;6.502;2023-04-03T14:24:47;3.25;;;1.52;;
76157;SDS011;64907;51.574;6.502;2023-04-03T14:27:55;2.30;;;1.27;;
76157;SDS011;64907;51.574;6.502;2023-04-03T14:30:01;5.28;;;1.70;;
76157;SDS011;64907;51.574;6.502;2023-04-03T14:32:28;2.97;;;1.60;;
76157;SDS011;64907;51.574;6.502;2023-04-03T14:34:54;2.75;;;1.67;;
76157;SDS011;64907;51.574;6.502;2023-04-03T14:37:23;3.50;;;1.60;;
76157;SDS011;64907;51.574;6.502;2023-04-03T14:39:49;1.48;;;1.17;;
76157;SDS011;64907;51.574;6.502;2023-04-03T14:42:25;3.13;;;1.58;;
76157;SDS011;64907;51.574;6.502;2023-04-03T14:44:52;2.35;;;1.50;;
76157;SDS011;64907;51.574;6.502;2023-04-03T14:47:21;2.60;;;1.60;;
76157;SDS011;64907;51.574;6.502;2023-04-03T14:49:47;2.28;;;1.40;;
76157;SDS011;64907;51.574;6.502;2023-04-03T14:52:16;2.27;;;1.50;;
76157;SDS011;64907;51.574;6.502;2023-04-03T14:54:42;3.92;;;1.50;;
76157;SDS011;64907;51.574;6.502;2023-04-03T14:57:08;1.35;;;1.17;;
76157;SDS011;64907;51.574;6.502;2023-04-03T14:59:34;5.25;;;1.75;;
76157;SDS011;64907;51.574;6.502;2023-04-03T15:02:00;1.73;;;1.58;;
76157;SDS011;64907;51.574;6.502;2023-04-03T15:04:25;3.07;;;1.70;;
76157;SDS011;64907;51.574;6.502;2023-04-03T15:06:53;2.35;;;1.98;;
76157;SDS011;64907;51.574;6.502;2023-04-03T15:09:23;2.70;;;1.55;;
76157;SDS011;64907;51.574;6.502;2023-04-03T15:11:49;1.55;;;1.45;;
76157;SDS011;64907;51.574;6.502;2023-04-03T15:14:14;3.63;;;1.80;;
76157;SDS011;64907;51.574;6.502;2023-04-03T15:16:39;2.25;;;1.63;;
76157;SDS011;64907;51.574;6.502;2023-04-03T15:19:04;2.47;;;1.80;;
76157;SDS011;64907;51.574;6.502;2023-04-03T15:21:30;1.60;;;1.50;;
76157;SDS011;64907;51.574;6.502;2023-04-03T15:23:55;1.43;;;1.33;;
76157;SDS011;64907;51.574;6.502;2023-04-03T15:26:21;3.85;;;1.40;;
76157;SDS011;64907;51.574;6.502;2023-04-03T15:28:46;3.17;;;1.70;;
76157;SDS011;64907;51.574;6.502;2023-04-03T15:31:11;5.00;;;2.58;;
76157;SDS011;64907;51.574;6.502;2023-04-03T15:33:37;1.73;;;1.63;;
76157;SDS011;64907;51.574;6.502;2023-04-03T15:36:02;3.45;;;1.50;;
76157;SDS011;64907;51.574;6.502;2023-04-03T15:38:29;3.40;;;1.45;;
76157;SDS011;64907;51.574;6.502;2023-04-03T15:40:55;1.35;;;1.25;;
76157;SDS011;64907;51.574;6.502;2023-04-03T15:43:24;2.83;;;1.73;;
76157;SDS011;64907;51.574;6.502;2023-04-03T15:45:51;2.17;;;1.70;;
76157;SDS011;64907;51.574;6.502;2023-04-03T15:48:19;1.40;;;1.30;;
76157;SDS011;64907;51.574;6.502;2023-04-03T15:50:48;2.58;;;1.77;;
76157;SDS011;64907;51.574;6.502;2023-04-03T15:53:16;3.45;;;1.58;;
76157;SDS011;64907;51.574;6.502;2023-04-03T15:55:42;2.92;;;1.90;;
76157;SDS011;64907;51.574;6.502;2023-04-03T15:58:07;1.77;;;1.60;;
76157;SDS011;64907;51.574;6.502;2023-04-03T16:00:32;1.85;;;1.67;;
76157;SDS011;64907;51.574;6.502;2023-04-03T16:03:08;3.83;;;1.60;;
76157;SDS011;64907;51.574;6.502;2023-04-03T16:05:35;2.17;;;1.58;;
76157;SDS011;64907;51.574;6.502;2023-04-03T16:08:01;2.05;;;1.38;;
76157;SDS011;64907;51.574;6.502;2023-04-03T16:10:27;4.20;;;2.10;;
76157;SDS011;64907;51.574;6.502;2023-04-03T16:12:52;5.93;;;2.40;;
76157;SDS011;64907;51.574;6.502;2023-04-03T16:15:17;2.83;;;1.85;;